sensor_id;sensor_type;location;lat;lon;timestamp;P1;durP1;ratioP1;P2;durP2;ratioP2
54384;SDS011;40284;52.878;5.998;2023-11-21T00:00:38;25.98;;;9.45;;
54384;SDS011;40284;52.878;5.998;2023-11-21T00:03:04;22.50;;;9.63;;
54384;SDS011;40284;52.878;5.998;2023-11-21T00:05:31;31.42;;;9.93;;
54384;SDS011;40284;52.878;5.998;2023-11-21T00:07:57;31.08;;;10.13;;
54384;SDS011;40284;52.878;5.998;2023-11-21T00:10:24;28.92;;;10.38;;
54384;SDS011;40284;52.878;5.998;2023-11-21T00:12:50;26.35;;;8.65;;
54384;SDS011;40284;52.878;5.998;2023-11-21T00:15:16;23.27;;;8.77;;
54384;SDS011;40284;52.878;5.998;2023-11-21T00:17:43;22.33;;;8.27;;
54384;SDS011;40284;52.878;5.998;2023-11-21T00:20:09;23.77;;;9.18;;
54384;SDS011;40284;52.878;5.998;2023-11-21T00:22:37;23.42;;;8.68;;
54384;SDS011;40284;52.878;5.998;2023-11-21T00:25:03;28.05;;;8.15;;
54384;SDS011;40284;52.878;5.998;2023-11-21T00:27:30;25.90;;;9.57;;
54384;SDS011;40284;52.878;5.998;2023-11-21T00:29:56;21.70;;;8.25;;
54384;SDS011;40284;52.878;5.998;2023-11-21T00:32:22;26.35;;;10.85;;
54384;SDS011;40284;52.878;5.998;2023-11-21T00:34:48;19.08;;;8.70;;
54384;SDS011;40284;52.878;5.998;2023-11-21T00:37:14;22.73;;;8.30;;
54384;SDS011;40284;52.878;5.998;2023-11-21T00:39:40;21.15;;;7.93;;
54384;SDS011;40284;52.878;5.998;2023-11-21T00:42:06;25.08;;;8.55;;
54384;SDS011;40284;52.878;5.998;2023-11-21T00:44:33;23.55;;;8.48;;
54384;SDS011;40284;52.878;5.998;2023-11-21T00:46:59;20.50;;;8.05;;
54384;SDS011;40284;52.878;5.998;2023-11-21T00:49:25;22.58;;;8.73;;
54384;SDS011;40284;52.878;5.998;2023-11-21T00:51:53;28.60;;;9.38;;
54384;SDS011;40284;52.878;5.998;2023-11-21T00:54:19;34.00;;;9.63;;
54384;SDS011;40284;52.878;5.998;2023-11-21T00:56:45;16.25;;;7.57;;
54384;SDS011;40284;52.878;5.998;2023-11-21T00:59:13;23.52;;;8.23;;
54384;SDS011;40284;52.878;5.998;2023-11-21T01:01:39;24.50;;;9.10;;
54384;SDS011;40284;52.878;5.998;2023-11-21T01:04:05;26.98;;;8.48;;
54384;SDS011;40284;52.878;5.998;2023-11-21T01:06:34;33.83;;;8.27;;
54384;SDS011;40284;52.878;5.998;2023-11-21T01:09:00;25.38;;;8.45;;
54384;SDS011;40284;52.878;5.998;2023-11-21T01:11:26;24.50;;;9.48;;
54384;SDS011;40284;52.878;5.998;2023-11-21T01:13:52;25.67;;;7.25;;
54384;SDS011;40284;52.878;5.998;2023-11-21T01:16:18;18.77;;;8.60;;
54384;SDS011;40284;52.878;5.998;2023-11-21T01:18:44;22.63;;;8.75;;
54384;SDS011;40284;52.878;5.998;2023-11-21T01:21:10;20.10;;;8.90;;
54384;SDS011;40284;52.878;5.998;2023-11-21T01:23:37;24.00;;;9.23;;
54384;SDS011;40284;52.878;5.998;2023-11-21T01:26:03;22.27;;;8.50;;
54384;SDS011;40284;52.878;5.998;2023-11-21T01:28:29;24.42;;;8.02;;
54384;SDS011;40284;52.878;5.998;2023-11-21T01:30:55;26.80;;;9.65;;
54384;SDS011;40284;52.878;5.998;2023-11-21T01:33:21;23.88;;;9.50;;
54384;SDS011;40284;52.878;5.998;2023-11-21T01:35:50;29.48;;;9.27;;
54384;SDS011;40284;52.878;5.998;2023-11-21T01:38:16;22.73;;;8.07;;
54384;SDS011;40284;52.878;5.998;2023-11-21T01:40:42;25.58;;;8.52;;
54384;SDS011;40284;52.878;5.998;2023-11-21T01:43:08;18.08;;;9.73;;
54384;SDS011;40284;52.878;5.998;2023-11-21T01:45:34;22.45;;;9.35;;
54384;SDS011;40284;52.878;5.998;2023-11-21T01:48:00;26.48;;;8.93;;
54384;SDS011;40284;52.878;5.998;2023-11-21T01:50:28;25.02;;;9.32;;
54384;SDS011;40284;52.878;5.998;2023-11-21T01:52:54;24.83;;;9.00;;
54384;SDS011;40284;52.878;5.998;2023-11-21T01:55:21;26.92;;;8.10;;
54384;SDS011;40284;52.878;5.998;2023-11-21T01:57:47;23.42;;;8.43;;
54384;SDS011;40284;52.878;5.998;2023-11-21T02:00:13;18.95;;;7.82;;
54384;SDS011;40284;52.878;5.998;2023-11-21T02:05:10;22.48;;;8.57;;
54384;SDS011;40284;52.878;5.998;2023-11-21T02:07:40;24.48;;;8.93;;
54384;SDS011;40284;52.878;5.998;2023-11-21T02:10:07;21.77;;;8.50;;
54384;SDS011;40284;52.878;5.998;2023-11-21T02:12:34;20.60;;;8.15;;
54384;SDS011;40284;52.878;5.998;2023-11-21T02:15:03;26.77;;;8.35;;
54384;SDS011;40284;52.878;5.998;2023-11-21T02:17:40;25.60;;;8.88;;
54384;SDS011;40284;52.878;5.998;2023-11-21T02:20:06;18.45;;;7.50;;
54384;SDS011;40284;52.878;5.998;2023-11-21T02:22:33;25.05;;;8.73;;
54384;SDS011;40284;52.878;5.998;2023-11-21T02:25:02;19.92;;;8.55;;
54384;SDS011;40284;52.878;5.998;2023-11-21T02:27:29;21.77;;;7.95;;
54384;SDS011;40284;52.878;5.998;2023-11-21T02:29:55;23.48;;;8.85;;
54384;SDS011;40284;52.878;5.998;2023-11-21T02:32:21;17.45;;;7.20;;
54384;SDS011;40284;52.878;5.998;2023-11-21T02:34:48;16.77;;;6.95;;
54384;SDS011;40284;52.878;5.998;2023-11-21T02:37:15;22.55;;;8.05;;
54384;SDS011;40284;52.878;5.998;2023-11-21T02:39:41;22.08;;;7.72;;
54384;SDS011;40284;52.878;5.998;2023-11-21T02:42:07;20.40;;;7.55;;
54384;SDS011;40284;52.878;5.998;2023-11-21T02:44:33;23.27;;;8.38;;
54384;SDS011;40284;52.878;5.998;2023-11-21T02:47:00;18.70;;;7.20;;
54384;SDS011;40284;52.878;5.998;2023-11-21T02:49:26;13.80;;;6.95;;
54384;SDS011;40284;52.878;5.998;2023-11-21T02:51:55;20.27;;;8.20;;
54384;SDS011;40284;52.878;5.998;2023-11-21T02:54:22;21.58;;;7.43;;
54384;SDS011;40284;52.878;5.998;2023-11-21T02:56:48;17.55;;;7.55;;
54384;SDS011;40284;52.878;5.998;2023-11-21T02:59:15;16.48;;;7.25;;
54384;SDS011;40284;52.878;5.998;2023-11-21T03:01:41;17.60;;;8.30;;
54384;SDS011;40284;52.878;5.998;2023-11-21T03:04:07;15.15;;;7.82;;
54384;SDS011;40284;52.878;5.998;2023-11-21T03:06:33;16.33;;;7.70;;
54384;SDS011;40284;52.878;5.998;2023-11-21T03:08:59;13.13;;;6.90;;
54384;SDS011;40284;52.878;5.998;2023-11-21T03:11:25;17.60;;;7.35;;
54384;SDS011;40284;52.878;5.998;2023-11-21T03:13:51;16.17;;;6.70;;
54384;SDS011;40284;52.878;5.998;2023-11-21T03:16:18;18.02;;;7.55;;
54384;SDS011;40284;52.878;5.998;2023-11-21T03:18:44;13.77;;;7.25;;
54384;SDS011;40284;52.878;5.998;2023-11-21T03:21:10;22.55;;;7.60;;
54384;SDS011;40284;52.878;5.998;2023-11-21T03:23:37;13.68;;;6.97;;
54384;SDS011;40284;52.878;5.998;2023-11-21T03:26:03;16.95;;;6.88;;
54384;SDS011;40284;52.878;5.998;2023-11-21T03:28:29;12.32;;;7.50;;
54384;SDS011;40284;52.878;5.998;2023-11-21T03:30:55;18.77;;;6.53;;
54384;SDS011;40284;52.878;5.998;2023-11-21T03:33:21;14.02;;;6.85;;
54384;SDS011;40284;52.878;5.998;2023-11-21T03:35:48;17.83;;;6.53;;
54384;SDS011;40284;52.878;5.998;2023-11-21T03:38:14;14.90;;;6.68;;
54384;SDS011;40284;52.878;5.998;2023-11-21T03:40:41;13.10;;;6.82;;
54384;SDS011;40284;52.878;5.998;2023-11-21T03:43:07;14.88;;;7.00;;
54384;SDS011;40284;52.878;5.998;2023-11-21T03:45:33;18.20;;;7.60;;
54384;SDS011;40284;52.878;5.998;2023-11-21T03:47:59;17.55;;;9.10;;
54384;SDS011;40284;52.878;5.998;2023-11-21T03:50:28;19.17;;;8.48;;
54384;SDS011;40284;52.878;5.998;2023-11-21T03:52:54;17.92;;;7.78;;
54384;SDS011;40284;52.878;5.998;2023-11-21T03:55:20;14.63;;;7.85;;
54384;SDS011;40284;52.878;5.998;2023-11-21T03:57:46;23.35;;;8.10;;
54384;SDS011;40284;52.878;5.998;2023-11-21T04:00:12;13.95;;;7.82;;
54384;SDS011;40284;52.878;5.998;2023-11-21T04:02:38;17.00;;;12.98;;
54384;SDS011;40284;52.878;5.998;2023-11-21T04:05:04;22.17;;;8.68;;
54384;SDS011;40284;52.878;5.998;2023-11-21T04:07:32;16.48;;;7.72;;
54384;SDS011;40284;52.878;5.998;2023-11-21T04:09:59;24.63;;;8.48;;
54384;SDS011;40284;52.878;5.998;2023-11-21T04:12:25;18.50;;;9.23;;
54384;SDS011;40284;52.878;5.998;2023-11-21T04:14:51;19.55;;;7.72;;
54384;SDS011;40284;52.878;5.998;2023-11-21T04:17:20;16.17;;;9.23;;
54384;SDS011;40284;52.878;5.998;2023-11-21T04:19:46;14.32;;;8.43;;
54384;SDS011;40284;52.878;5.998;2023-11-21T04:22:12;14.25;;;6.70;;
54384;SDS011;40284;52.878;5.998;2023-11-21T04:24:38;17.77;;;8.30;;
54384;SDS011;40284;52.878;5.998;2023-11-21T04:27:04;13.75;;;8.07;;
54384;SDS011;40284;52.878;5.998;2023-11-21T04:29:30;16.38;;;8.15;;
54384;SDS011;40284;52.878;5.998;2023-11-21T04:31:56;16.95;;;8.32;;
54384;SDS011;40284;52.878;5.998;2023-11-21T04:34:22;16.40;;;7.70;;
54384;SDS011;40284;52.878;5.998;2023-11-21T04:36:49;16.58;;;8.50;;
54384;SDS011;40284;52.878;5.998;2023-11-21T04:39:15;21.45;;;8.70;;
54384;SDS011;40284;52.878;5.998;2023-11-21T04:41:41;14.05;;;7.72;;
54384;SDS011;40284;52.878;5.998;2023-11-21T04:44:08;17.98;;;8.55;;
54384;SDS011;40284;52.878;5.998;2023-11-21T04:46:34;16.00;;;8.20;;
54384;SDS011;40284;52.878;5.998;2023-11-21T04:49:00;16.50;;;7.85;;
54384;SDS011;40284;52.878;5.998;2023-11-21T04:51:26;27.15;;;9.73;;
54384;SDS011;40284;52.878;5.998;2023-11-21T04:53:52;17.75;;;8.68;;
54384;SDS011;40284;52.878;5.998;2023-11-21T04:56:18;17.08;;;9.43;;
54384;SDS011;40284;52.878;5.998;2023-11-21T04:58:45;20.33;;;10.85;;
54384;SDS011;40284;52.878;5.998;2023-11-21T05:01:11;21.92;;;9.57;;
54384;SDS011;40284;52.878;5.998;2023-11-21T05:03:37;18.33;;;9.05;;
54384;SDS011;40284;52.878;5.998;2023-11-21T05:06:04;22.77;;;9.70;;
54384;SDS011;40284;52.878;5.998;2023-11-21T05:08:30;19.00;;;10.05;;
54384;SDS011;40284;52.878;5.998;2023-11-21T05:10:56;25.02;;;10.57;;
54384;SDS011;40284;52.878;5.998;2023-11-21T05:13:22;25.33;;;10.30;;
54384;SDS011;40284;52.878;5.998;2023-11-21T05:15:52;16.67;;;9.50;;
54384;SDS011;40284;52.878;5.998;2023-11-21T05:18:18;14.27;;;9.52;;
54384;SDS011;40284;52.878;5.998;2023-11-21T05:20:45;23.30;;;10.48;;
54384;SDS011;40284;52.878;5.998;2023-11-21T05:23:12;29.15;;;10.07;;
54384;SDS011;40284;52.878;5.998;2023-11-21T05:25:38;21.80;;;10.82;;
54384;SDS011;40284;52.878;5.998;2023-11-21T05:28:06;22.23;;;10.13;;
54384;SDS011;40284;52.878;5.998;2023-11-21T05:30:32;22.52;;;11.15;;
54384;SDS011;40284;52.878;5.998;2023-11-21T05:32:58;22.70;;;10.45;;
54384;SDS011;40284;52.878;5.998;2023-11-21T05:35:24;21.58;;;10.13;;
54384;SDS011;40284;52.878;5.998;2023-11-21T05:37:51;19.60;;;10.82;;
54384;SDS011;40284;52.878;5.998;2023-11-21T05:40:17;19.90;;;10.43;;
54384;SDS011;40284;52.878;5.998;2023-11-21T05:42:44;23.85;;;10.57;;
54384;SDS011;40284;52.878;5.998;2023-11-21T05:45:10;24.75;;;10.23;;
54384;SDS011;40284;52.878;5.998;2023-11-21T05:47:37;22.20;;;11.77;;
54384;SDS011;40284;52.878;5.998;2023-11-21T05:50:04;23.10;;;11.70;;
54384;SDS011;40284;52.878;5.998;2023-11-21T05:52:31;21.08;;;10.93;;
54384;SDS011;40284;52.878;5.998;2023-11-21T05:55:00;22.40;;;11.70;;
54384;SDS011;40284;52.878;5.998;2023-11-21T05:57:26;27.75;;;12.25;;
54384;SDS011;40284;52.878;5.998;2023-11-21T05:59:52;28.50;;;12.82;;
54384;SDS011;40284;52.878;5.998;2023-11-21T06:02:18;20.80;;;11.60;;
54384;SDS011;40284;52.878;5.998;2023-11-21T06:04:44;24.25;;;11.95;;
54384;SDS011;40284;52.878;5.998;2023-11-21T06:07:10;25.67;;;12.10;;
54384;SDS011;40284;52.878;5.998;2023-11-21T06:09:37;22.73;;;11.63;;
54384;SDS011;40284;52.878;5.998;2023-11-21T06:12:03;27.20;;;11.63;;
54384;SDS011;40284;52.878;5.998;2023-11-21T06:14:29;19.52;;;10.30;;
54384;SDS011;40284;52.878;5.998;2023-11-21T06:16:55;19.85;;;10.98;;
54384;SDS011;40284;52.878;5.998;2023-11-21T06:19:22;18.83;;;10.43;;
54384;SDS011;40284;52.878;5.998;2023-11-21T06:21:48;15.63;;;9.80;;
54384;SDS011;40284;52.878;5.998;2023-11-21T06:24:14;16.33;;;9.23;;
54384;SDS011;40284;52.878;5.998;2023-11-21T06:26:40;16.80;;;10.63;;
54384;SDS011;40284;52.878;5.998;2023-11-21T06:29:06;17.98;;;10.90;;
54384;SDS011;40284;52.878;5.998;2023-11-21T06:31:33;20.25;;;11.07;;
54384;SDS011;40284;52.878;5.998;2023-11-21T06:33:59;16.27;;;9.95;;
54384;SDS011;40284;52.878;5.998;2023-11-21T06:36:25;17.38;;;10.32;;
54384;SDS011;40284;52.878;5.998;2023-11-21T06:38:54;21.00;;;11.40;;
54384;SDS011;40284;52.878;5.998;2023-11-21T06:41:20;17.77;;;11.32;;
54384;SDS011;40284;52.878;5.998;2023-11-21T06:43:46;19.63;;;11.50;;
54384;SDS011;40284;52.878;5.998;2023-11-21T06:46:13;22.98;;;11.75;;
54384;SDS011;40284;52.878;5.998;2023-11-21T06:48:40;21.42;;;11.98;;
54384;SDS011;40284;52.878;5.998;2023-11-21T06:51:06;18.55;;;11.80;;
54384;SDS011;40284;52.878;5.998;2023-11-21T06:53:32;21.60;;;11.45;;
54384;SDS011;40284;52.878;5.998;2023-11-21T06:55:59;22.67;;;12.65;;
54384;SDS011;40284;52.878;5.998;2023-11-21T06:58:25;33.58;;;13.75;;
54384;SDS011;40284;52.878;5.998;2023-11-21T07:00:51;47.60;;;17.65;;
54384;SDS011;40284;52.878;5.998;2023-11-21T07:03:17;34.38;;;15.35;;
54384;SDS011;40284;52.878;5.998;2023-11-21T07:05:44;26.40;;;14.13;;
54384;SDS011;40284;52.878;5.998;2023-11-21T07:08:10;25.63;;;13.40;;
54384;SDS011;40284;52.878;5.998;2023-11-21T07:10:37;29.92;;;13.60;;
54384;SDS011;40284;52.878;5.998;2023-11-21T07:13:04;28.63;;;13.77;;
54384;SDS011;40284;52.878;5.998;2023-11-21T07:15:30;66.78;;;19.40;;
54384;SDS011;40284;52.878;5.998;2023-11-21T07:17:56;28.52;;;13.38;;
54384;SDS011;40284;52.878;5.998;2023-11-21T07:20:22;27.20;;;13.65;;
54384;SDS011;40284;52.878;5.998;2023-11-21T07:22:48;37.88;;;15.65;;
54384;SDS011;40284;52.878;5.998;2023-11-21T07:25:15;25.02;;;12.07;;
54384;SDS011;40284;52.878;5.998;2023-11-21T07:27:41;24.55;;;13.88;;
54384;SDS011;40284;52.878;5.998;2023-11-21T07:30:07;27.85;;;13.40;;
54384;SDS011;40284;52.878;5.998;2023-11-21T07:32:34;29.23;;;13.70;;
54384;SDS011;40284;52.878;5.998;2023-11-21T07:35:01;27.45;;;13.30;;
54384;SDS011;40284;52.878;5.998;2023-11-21T07:37:27;26.27;;;13.98;;
54384;SDS011;40284;52.878;5.998;2023-11-21T07:39:53;28.63;;;14.05;;
54384;SDS011;40284;52.878;5.998;2023-11-21T07:42:22;23.38;;;12.90;;
54384;SDS011;40284;52.878;5.998;2023-11-21T07:44:49;30.50;;;13.75;;
54384;SDS011;40284;52.878;5.998;2023-11-21T07:47:15;22.02;;;12.05;;
54384;SDS011;40284;52.878;5.998;2023-11-21T07:49:41;20.73;;;12.23;;
54384;SDS011;40284;52.878;5.998;2023-11-21T07:52:09;21.50;;;12.45;;
54384;SDS011;40284;52.878;5.998;2023-11-21T07:54:35;24.15;;;13.93;;
54384;SDS011;40284;52.878;5.998;2023-11-21T07:57:01;23.00;;;12.20;;
54384;SDS011;40284;52.878;5.998;2023-11-21T07:59:29;24.52;;;12.63;;
54384;SDS011;40284;52.878;5.998;2023-11-21T08:01:55;26.13;;;12.80;;
54384;SDS011;40284;52.878;5.998;2023-11-21T08:04:21;24.02;;;12.18;;
54384;SDS011;40284;52.878;5.998;2023-11-21T08:06:48;21.58;;;12.18;;
54384;SDS011;40284;52.878;5.998;2023-11-21T08:09:14;24.00;;;11.52;;
54384;SDS011;40284;52.878;5.998;2023-11-21T08:11:42;21.75;;;12.85;;
54384;SDS011;40284;52.878;5.998;2023-11-21T08:14:08;21.60;;;12.93;;
54384;SDS011;40284;52.878;5.998;2023-11-21T08:16:34;24.92;;;12.38;;
54384;SDS011;40284;52.878;5.998;2023-11-21T08:19:00;23.30;;;12.63;;
54384;SDS011;40284;52.878;5.998;2023-11-21T08:21:27;28.08;;;13.30;;
54384;SDS011;40284;52.878;5.998;2023-11-21T08:23:54;23.23;;;12.25;;
54384;SDS011;40284;52.878;5.998;2023-11-21T08:26:21;20.40;;;13.00;;
54384;SDS011;40284;52.878;5.998;2023-11-21T08:28:47;23.20;;;12.05;;
54384;SDS011;40284;52.878;5.998;2023-11-21T08:31:13;23.63;;;11.48;;
54384;SDS011;40284;52.878;5.998;2023-11-21T08:33:39;23.58;;;12.82;;
54384;SDS011;40284;52.878;5.998;2023-11-21T08:36:08;27.65;;;13.70;;
54384;SDS011;40284;52.878;5.998;2023-11-21T08:38:37;20.08;;;12.43;;
54384;SDS011;40284;52.878;5.998;2023-11-21T08:41:06;29.80;;;13.32;;
54384;SDS011;40284;52.878;5.998;2023-11-21T08:43:36;25.35;;;13.35;;
54384;SDS011;40284;52.878;5.998;2023-11-21T08:46:08;28.60;;;12.68;;
54384;SDS011;40284;52.878;5.998;2023-11-21T08:48:35;25.75;;;12.65;;
54384;SDS011;40284;52.878;5.998;2023-11-21T08:51:01;22.92;;;12.82;;
54384;SDS011;40284;52.878;5.998;2023-11-21T08:53:27;21.90;;;12.48;;
54384;SDS011;40284;52.878;5.998;2023-11-21T08:55:53;23.25;;;12.80;;
54384;SDS011;40284;52.878;5.998;2023-11-21T08:58:19;24.83;;;12.05;;
54384;SDS011;40284;52.878;5.998;2023-11-21T09:00:45;22.77;;;11.93;;
54384;SDS011;40284;52.878;5.998;2023-11-21T09:03:12;19.75;;;12.25;;
54384;SDS011;40284;52.878;5.998;2023-11-21T09:05:39;23.83;;;12.55;;
54384;SDS011;40284;52.878;5.998;2023-11-21T09:08:05;25.15;;;12.68;;
54384;SDS011;40284;52.878;5.998;2023-11-21T09:10:33;27.70;;;13.13;;
54384;SDS011;40284;52.878;5.998;2023-11-21T09:13:02;26.95;;;12.75;;
54384;SDS011;40284;52.878;5.998;2023-11-21T09:15:28;26.67;;;14.15;;
54384;SDS011;40284;52.878;5.998;2023-11-21T09:17:55;30.55;;;13.65;;
54384;SDS011;40284;52.878;5.998;2023-11-21T09:20:21;25.33;;;12.93;;
54384;SDS011;40284;52.878;5.998;2023-11-21T09:22:48;20.25;;;11.88;;
54384;SDS011;40284;52.878;5.998;2023-11-21T09:25:14;18.58;;;11.80;;
54384;SDS011;40284;52.878;5.998;2023-11-21T09:27:41;19.58;;;12.30;;
54384;SDS011;40284;52.878;5.998;2023-11-21T09:30:07;21.40;;;13.43;;
54384;SDS011;40284;52.878;5.998;2023-11-21T09:32:39;22.50;;;14.15;;
54384;SDS011;40284;52.878;5.998;2023-11-21T09:35:05;21.52;;;13.68;;
54384;SDS011;40284;52.878;5.998;2023-11-21T09:37:34;26.20;;;15.70;;
54384;SDS011;40284;52.878;5.998;2023-11-21T09:40:01;23.23;;;14.50;;
54384;SDS011;40284;52.878;5.998;2023-11-21T09:42:38;26.08;;;14.35;;
54384;SDS011;40284;52.878;5.998;2023-11-21T09:45:18;29.45;;;16.05;;
54384;SDS011;40284;52.878;5.998;2023-11-21T09:47:48;22.77;;;14.00;;
54384;SDS011;40284;52.878;5.998;2023-11-21T09:50:16;23.17;;;14.13;;
54384;SDS011;40284;52.878;5.998;2023-11-21T09:55:29;20.65;;;13.05;;
54384;SDS011;40284;52.878;5.998;2023-11-21T09:58:00;23.02;;;12.15;;
54384;SDS011;40284;52.878;5.998;2023-11-21T10:00:28;20.65;;;13.32;;
54384;SDS011;40284;52.878;5.998;2023-11-21T10:02:55;17.80;;;12.85;;
54384;SDS011;40284;52.878;5.998;2023-11-21T10:05:24;18.33;;;12.13;;
54384;SDS011;40284;52.878;5.998;2023-11-21T10:07:50;23.45;;;11.40;;
54384;SDS011;40284;52.878;5.998;2023-11-21T10:10:18;21.42;;;12.65;;
54384;SDS011;40284;52.878;5.998;2023-11-21T10:12:49;21.25;;;12.65;;
54384;SDS011;40284;52.878;5.998;2023-11-21T10:15:18;29.50;;;17.42;;
54384;SDS011;40284;52.878;5.998;2023-11-21T10:17:46;31.45;;;17.30;;
54384;SDS011;40284;52.878;5.998;2023-11-21T10:20:14;28.20;;;17.52;;
54384;SDS011;40284;52.878;5.998;2023-11-21T10:22:42;30.15;;;18.52;;
54384;SDS011;40284;52.878;5.998;2023-11-21T10:25:09;27.25;;;16.88;;
54384;SDS011;40284;52.878;5.998;2023-11-21T10:27:35;29.63;;;18.60;;
54384;SDS011;40284;52.878;5.998;2023-11-21T10:30:04;31.23;;;18.83;;
54384;SDS011;40284;52.878;5.998;2023-11-21T10:32:30;23.23;;;15.80;;
54384;SDS011;40284;52.878;5.998;2023-11-21T10:34:59;26.02;;;16.33;;
54384;SDS011;40284;52.878;5.998;2023-11-21T10:37:27;21.40;;;14.40;;
54384;SDS011;40284;52.878;5.998;2023-11-21T10:39:57;23.95;;;15.45;;
54384;SDS011;40284;52.878;5.998;2023-11-21T10:42:23;20.02;;;13.48;;
54384;SDS011;40284;52.878;5.998;2023-11-21T10:44:50;20.45;;;13.45;;
54384;SDS011;40284;52.878;5.998;2023-11-21T10:47:17;21.48;;;13.82;;
54384;SDS011;40284;52.878;5.998;2023-11-21T10:49:44;20.27;;;14.30;;
54384;SDS011;40284;52.878;5.998;2023-11-21T10:52:12;20.77;;;14.35;;
54384;SDS011;40284;52.878;5.998;2023-11-21T10:54:45;19.38;;;14.45;;
54384;SDS011;40284;52.878;5.998;2023-11-21T10:57:11;24.10;;;16.65;;
54384;SDS011;40284;52.878;5.998;2023-11-21T10:59:40;20.10;;;14.60;;
54384;SDS011;40284;52.878;5.998;2023-11-21T11:05:02;22.02;;;12.80;;
54384;SDS011;40284;52.878;5.998;2023-11-21T11:07:31;17.50;;;13.05;;
54384;SDS011;40284;52.878;5.998;2023-11-21T11:09:59;19.63;;;13.35;;
54384;SDS011;40284;52.878;5.998;2023-11-21T11:12:25;15.05;;;12.43;;
54384;SDS011;40284;52.878;5.998;2023-11-21T11:14:51;17.88;;;13.93;;
54384;SDS011;40284;52.878;5.998;2023-11-21T11:17:18;15.57;;;12.95;;
54384;SDS011;40284;52.878;5.998;2023-11-21T11:19:48;17.35;;;13.55;;
54384;SDS011;40284;52.878;5.998;2023-11-21T11:22:34;17.02;;;13.32;;
54384;SDS011;40284;52.878;5.998;2023-11-21T11:28:10;17.10;;;13.40;;
54384;SDS011;40284;52.878;5.998;2023-11-21T11:35:50;16.35;;;13.10;;
54384;SDS011;40284;52.878;5.998;2023-11-21T11:38:20;16.58;;;13.70;;
54384;SDS011;40284;52.878;5.998;2023-11-21T11:40:48;15.77;;;13.35;;
54384;SDS011;40284;52.878;5.998;2023-11-21T11:43:27;16.95;;;13.70;;
54384;SDS011;40284;52.878;5.998;2023-11-21T11:45:58;17.05;;;13.77;;
54384;SDS011;40284;52.878;5.998;2023-11-21T11:48:24;19.73;;;14.10;;
54384;SDS011;40284;52.878;5.998;2023-11-21T11:51:12;15.68;;;13.13;;
54384;SDS011;40284;52.878;5.998;2023-11-21T11:53:40;16.58;;;13.48;;
54384;SDS011;40284;52.878;5.998;2023-11-21T11:56:26;13.40;;;12.00;;
54384;SDS011;40284;52.878;5.998;2023-11-21T11:58:53;15.77;;;13.45;;
54384;SDS011;40284;52.878;5.998;2023-11-21T12:01:20;22.85;;;12.48;;
54384;SDS011;40284;52.878;5.998;2023-11-21T12:06:34;15.43;;;11.60;;
54384;SDS011;40284;52.878;5.998;2023-11-21T12:09:02;13.20;;;11.00;;
54384;SDS011;40284;52.878;5.998;2023-11-21T12:11:32;13.87;;;11.27;;
54384;SDS011;40284;52.878;5.998;2023-11-21T12:14:00;14.40;;;11.52;;
54384;SDS011;40284;52.878;5.998;2023-11-21T12:16:27;13.07;;;11.00;;
54384;SDS011;40284;52.878;5.998;2023-11-21T12:18:53;12.00;;;10.63;;
54384;SDS011;40284;52.878;5.998;2023-11-21T12:21:20;11.95;;;10.25;;
54384;SDS011;40284;52.878;5.998;2023-11-21T12:23:46;15.85;;;10.75;;
54384;SDS011;40284;52.878;5.998;2023-11-21T12:26:13;12.25;;;10.25;;
54384;SDS011;40284;52.878;5.998;2023-11-21T12:28:39;13.20;;;10.07;;
54384;SDS011;40284;52.878;5.998;2023-11-21T12:31:05;11.77;;;10.18;;
54384;SDS011;40284;52.878;5.998;2023-11-21T12:33:35;11.98;;;9.40;;
54384;SDS011;40284;52.878;5.998;2023-11-21T12:36:02;11.05;;;9.00;;
54384;SDS011;40284;52.878;5.998;2023-11-21T12:38:35;12.80;;;9.55;;
54384;SDS011;40284;52.878;5.998;2023-11-21T12:41:01;13.60;;;9.43;;
54384;SDS011;40284;52.878;5.998;2023-11-21T12:43:27;10.55;;;8.73;;
54384;SDS011;40284;52.878;5.998;2023-11-21T12:46:04;9.93;;;7.82;;
54384;SDS011;40284;52.878;5.998;2023-11-21T12:48:31;10.50;;;7.68;;
54384;SDS011;40284;52.878;5.998;2023-11-21T12:50:57;9.52;;;7.85;;
54384;SDS011;40284;52.878;5.998;2023-11-21T12:53:25;11.95;;;7.70;;
54384;SDS011;40284;52.878;5.998;2023-11-21T12:55:51;9.10;;;7.13;;
54384;SDS011;40284;52.878;5.998;2023-11-21T12:58:17;10.65;;;8.07;;
54384;SDS011;40284;52.878;5.998;2023-11-21T13:00:48;11.75;;;7.45;;
54384;SDS011;40284;52.878;5.998;2023-11-21T13:03:17;9.52;;;7.18;;
54384;SDS011;40284;52.878;5.998;2023-11-21T13:05:50;10.38;;;8.10;;
54384;SDS011;40284;52.878;5.998;2023-11-21T13:08:19;11.85;;;8.10;;
54384;SDS011;40284;52.878;5.998;2023-11-21T13:10:49;11.65;;;8.05;;
54384;SDS011;40284;52.878;5.998;2023-11-21T13:13:15;9.50;;;7.50;;
54384;SDS011;40284;52.878;5.998;2023-11-21T13:15:48;9.55;;;7.47;;
54384;SDS011;40284;52.878;5.998;2023-11-21T13:18:14;10.13;;;7.05;;
54384;SDS011;40284;52.878;5.998;2023-11-21T13:20:41;10.60;;;7.63;;
54384;SDS011;40284;52.878;5.998;2023-11-21T13:23:08;10.50;;;7.38;;
54384;SDS011;40284;52.878;5.998;2023-11-21T13:25:37;10.15;;;6.88;;
54384;SDS011;40284;52.878;5.998;2023-11-21T13:28:04;9.43;;;7.60;;
54384;SDS011;40284;52.878;5.998;2023-11-21T13:30:30;9.05;;;6.93;;
54384;SDS011;40284;52.878;5.998;2023-11-21T13:33:00;9.25;;;6.90;;
54384;SDS011;40284;52.878;5.998;2023-11-21T13:38:04;7.88;;;6.03;;
54384;SDS011;40284;52.878;5.998;2023-11-21T13:40:31;10.25;;;7.25;;
54384;SDS011;40284;52.878;5.998;2023-11-21T13:42:59;10.95;;;6.82;;
54384;SDS011;40284;52.878;5.998;2023-11-21T13:45:29;7.82;;;6.43;;
54384;SDS011;40284;52.878;5.998;2023-11-21T13:47:56;9.30;;;6.72;;
54384;SDS011;40284;52.878;5.998;2023-11-21T13:50:24;9.55;;;6.93;;
54384;SDS011;40284;52.878;5.998;2023-11-21T13:52:57;9.85;;;7.18;;
54384;SDS011;40284;52.878;5.998;2023-11-21T13:55:28;10.45;;;7.78;;
54384;SDS011;40284;52.878;5.998;2023-11-21T13:57:54;11.82;;;7.13;;
54384;SDS011;40284;52.878;5.998;2023-11-21T14:00:20;8.48;;;6.57;;
54384;SDS011;40284;52.878;5.998;2023-11-21T14:03:23;8.95;;;6.32;;
54384;SDS011;40284;52.878;5.998;2023-11-21T14:05:58;8.05;;;6.45;;
54384;SDS011;40284;52.878;5.998;2023-11-21T14:08:25;11.50;;;6.05;;
54384;SDS011;40284;52.878;5.998;2023-11-21T14:10:55;8.57;;;6.25;;
54384;SDS011;40284;52.878;5.998;2023-11-21T14:13:23;8.02;;;6.10;;
54384;SDS011;40284;52.878;5.998;2023-11-21T14:15:50;7.38;;;6.03;;
54384;SDS011;40284;52.878;5.998;2023-11-21T14:18:17;9.82;;;6.75;;
54384;SDS011;40284;52.878;5.998;2023-11-21T14:20:52;9.23;;;6.05;;
54384;SDS011;40284;52.878;5.998;2023-11-21T14:23:18;9.18;;;5.80;;
54384;SDS011;40284;52.878;5.998;2023-11-21T14:25:46;6.90;;;5.65;;
54384;SDS011;40284;52.878;5.998;2023-11-21T14:28:13;9.27;;;6.03;;
54384;SDS011;40284;52.878;5.998;2023-11-21T14:30:39;8.15;;;5.60;;
54384;SDS011;40284;52.878;5.998;2023-11-21T14:33:07;13.55;;;5.88;;
54384;SDS011;40284;52.878;5.998;2023-11-21T14:35:35;7.50;;;5.93;;
54384;SDS011;40284;52.878;5.998;2023-11-21T14:38:01;7.60;;;5.35;;
54384;SDS011;40284;52.878;5.998;2023-11-21T14:40:32;7.63;;;5.82;;
54384;SDS011;40284;52.878;5.998;2023-11-21T14:43:00;8.18;;;6.20;;
54384;SDS011;40284;52.878;5.998;2023-11-21T14:45:26;8.30;;;5.90;;
54384;SDS011;40284;52.878;5.998;2023-11-21T14:47:54;10.75;;;6.82;;
54384;SDS011;40284;52.878;5.998;2023-11-21T14:50:33;9.48;;;6.78;;